createdAt,value
2023-02-14T00:02:17.679Z,21.80
2023-02-14T00:04:46.011Z,26.17
2023-02-14T00:07:13.475Z,22.03
2023-02-14T00:09:41.816Z,19.98
2023-02-14T00:12:09.349Z,21.20
2023-02-14T00:14:55.075Z,18.87
2023-02-14T00:17:22.609Z,20.97
2023-02-14T00:19:50.172Z,14.67
2023-02-14T00:22:17.720Z,16.90
2023-02-14T00:24:45.251Z,14.97
2023-02-14T00:27:12.786Z,19.33
2023-02-14T00:29:41.117Z,15.40
2023-02-14T00:32:08.742Z,14.50
2023-02-14T00:34:36.196Z,18.07
2023-02-14T00:37:03.741Z,19.87
2023-02-14T00:39:32.182Z,14.23
2023-02-14T00:41:59.742Z,15.13
2023-02-14T00:44:27.320Z,18.40
2023-02-14T00:46:54.866Z,16.93
2023-02-14T00:49:22.392Z,15.67
2023-02-14T00:51:49.933Z,17.42
2023-02-14T00:54:17.479Z,16.83
2023-02-14T00:56:45.782Z,15.13
2023-02-14T00:59:13.364Z,13.60
2023-02-14T01:01:40.924Z,15.33
2023-02-14T01:04:08.454Z,18.53
2023-02-14T01:06:35.999Z,18.83
2023-02-14T01:09:04.304Z,17.37
2023-02-14T01:11:31.832Z,15.50
2023-02-14T01:14:00.546Z,20.92
2023-02-14T01:16:28.195Z,16.63
2023-02-14T01:18:55.631Z,17.10
2023-02-14T01:21:23.945Z,16.00
2023-02-14T01:23:51.477Z,21.43
2023-02-14T01:26:19.809Z,14.70
2023-02-14T01:28:47.424Z,18.37
2023-02-14T01:31:17.550Z,19.37
2023-02-14T01:33:45.004Z,20.80
2023-02-14T01:36:21.424Z,19.30
2023-02-14T01:38:48.937Z,17.70
2023-02-14T01:41:16.484Z,18.80
2023-02-14T01:43:53.874Z,16.00
2023-02-14T01:46:21.410Z,16.63
2023-02-14T01:48:49.722Z,14.73
2023-02-14T01:51:17.289Z,19.43
2023-02-14T01:53:44.813Z,15.80
2023-02-14T01:56:13.128Z,15.77
2023-02-14T01:58:40.703Z,18.77
2023-02-14T02:01:08.266Z,23.80
2023-02-14T02:03:35.776Z,18.53
2023-02-14T02:06:16.281Z,46.10
2023-02-14T02:09:01.579Z,59.13
2023-02-14T02:11:29.162Z,57.60
2023-02-14T02:13:57.455Z,50.13
2023-02-14T02:16:40.168Z,34.97
2023-02-14T02:19:10.278Z,47.07
2023-02-14T02:22:00.137Z,41.67
2023-02-14T02:24:42.357Z,58.37
2023-02-14T02:27:19.531Z,44.70
2023-02-14T02:30:12.231Z,33.87
2023-02-14T02:32:45.717Z,34.33
2023-02-14T02:35:37.512Z,41.57
2023-02-14T02:38:24.188Z,49.50
2023-02-14T02:41:16.122Z,71.80
2023-02-14T02:44:05.081Z,50.77
2023-02-14T02:46:50.595Z,61.70
2023-02-14T02:50:12.884Z,59.80
2023-02-14T02:53:04.192Z,56.90
2023-02-14T02:56:01.795Z,80.47
2023-02-14T02:58:38.130Z,75.10
2023-02-14T03:01:08.203Z,60.63
2023-02-14T03:03:53.830Z,50.37
2023-02-14T03:06:21.383Z,72.97
2023-02-14T03:08:48.938Z,54.23
2023-02-14T03:11:16.450Z,56.73
2023-02-14T03:14:09.132Z,67.07
2023-02-14T03:16:57.714Z,46.23
2023-02-14T03:19:27.841Z,50.93
2023-02-14T03:21:55.367Z,56.87
2023-02-14T03:24:38.005Z,43.30
2023-02-14T03:27:29.772Z,46.70
2023-02-14T03:30:10.044Z,62.87
2023-02-14T03:32:46.315Z,70.77
2023-02-14T03:35:20.264Z,42.00
2023-02-14T03:37:59.878Z,45.73
2023-02-14T03:40:39.180Z,55.67
2023-02-14T03:43:13.448Z,53.03
2023-02-14T03:45:49.675Z,53.30
2023-02-14T03:48:17.218Z,42.33
2023-02-14T03:50:45.533Z,46.43
2023-02-14T03:53:13.126Z,43.53
2023-02-14T03:56:10.860Z,37.50
2023-02-14T03:58:38.394Z,47.10
2023-02-14T04:01:11.382Z,41.60
2023-02-14T04:03:38.942Z,31.77
2023-02-14T04:06:06.462Z,35.43
2023-02-14T04:08:33.996Z,39.13
2023-02-14T04:11:01.835Z,31.87
2023-02-14T04:13:29.087Z,37.37
2023-02-14T04:15:56.613Z,44.70
2023-02-14T04:18:42.292Z,47.57
2023-02-14T04:21:10.614Z,53.63
2023-02-14T04:23:38.128Z,42.50
2023-02-14T04:26:06.452Z,65.63
2023-02-14T04:28:34.006Z,71.93
2023-02-14T04:31:02.181Z,40.97
2023-02-14T04:33:29.133Z,44.90
2023-02-14T04:35:56.668Z,40.67
2023-02-14T04:38:24.192Z,50.90
2023-02-14T04:40:51.737Z,67.70
2023-02-14T04:43:19.278Z,52.03
2023-02-14T04:45:46.807Z,61.37
2023-02-14T04:48:14.375Z,40.17
2023-02-14T04:50:41.934Z,53.77
2023-02-14T04:53:09.430Z,61.80
2023-02-14T04:55:37.014Z,55.10
2023-02-14T04:58:05.309Z,38.23
2023-02-14T05:00:32.946Z,59.87
2023-02-14T05:03:01.192Z,89.40
2023-02-14T05:05:28.726Z,91.80
2023-02-14T05:07:56.276Z,59.38
2023-02-14T05:10:23.885Z,73.63
2023-02-14T05:12:51.409Z,81.70
2023-02-14T05:15:18.955Z,59.60
2023-02-14T05:17:46.529Z,69.20
2023-02-14T05:20:14.088Z,60.77
2023-02-14T05:22:41.627Z,56.03
2023-02-14T05:25:09.225Z,80.17
2023-02-14T05:27:36.754Z,80.73
2023-02-14T05:30:04.334Z,56.97
2023-02-14T05:32:32.622Z,45.97
2023-02-14T05:35:01.227Z,48.10
2023-02-14T05:37:27.702Z,45.00
2023-02-14T05:39:55.285Z,44.63
2023-02-14T05:42:22.862Z,55.60
2023-02-14T05:44:50.347Z,47.83
2023-02-14T05:47:18.695Z,69.90
2023-02-14T05:49:46.221Z,51.20
2023-02-14T05:52:13.828Z,57.50
2023-02-14T05:54:42.104Z,117.00
2023-02-14T05:57:09.625Z,85.47
2023-02-14T05:59:37.161Z,75.00
2023-02-14T06:02:04.792Z,64.97
2023-02-14T06:04:32.352Z,56.90
2023-02-14T06:06:59.855Z,56.33
2023-02-14T06:09:27.431Z,50.67
2023-02-14T06:11:55.431Z,34.27
2023-02-14T06:14:22.495Z,83.97
2023-02-14T06:16:50.868Z,87.77
2023-02-14T06:19:18.358Z,86.95
2023-02-14T06:21:45.899Z,84.83
2023-02-14T06:24:14.610Z,65.87
2023-02-14T06:26:42.169Z,113.40
2023-02-14T06:29:09.689Z,57.90
2023-02-14T06:31:37.332Z,116.40
2023-02-14T06:34:05.569Z,108.03
2023-02-14T06:36:33.090Z,79.80
2023-02-14T06:39:01.464Z,94.90
2023-02-14T06:41:29.009Z,75.90
2023-02-14T06:43:56.540Z,86.20
2023-02-14T06:46:24.233Z,55.15
2023-02-14T06:48:51.679Z,72.80
2023-02-14T06:51:19.205Z,56.10
2023-02-14T06:53:46.799Z,66.28
2023-02-14T06:56:14.334Z,93.17
2023-02-14T06:58:41.927Z,108.73
2023-02-14T07:01:09.520Z,89.07
2023-02-14T07:03:37.784Z,86.47
2023-02-14T07:06:06.129Z,83.40
2023-02-14T07:08:33.713Z,71.27
2023-02-14T07:11:01.591Z,91.80
2023-02-14T07:13:28.775Z,72.30
2023-02-14T07:15:56.493Z,104.12
2023-02-14T07:18:23.898Z,94.13
2023-02-14T07:20:51.453Z,138.43
2023-02-14T07:23:19.064Z,101.57
2023-02-14T07:25:46.572Z,195.47
2023-02-14T07:28:14.105Z,134.77
2023-02-14T07:30:41.779Z,93.80
2023-02-14T07:33:09.293Z,85.10
2023-02-14T07:35:36.778Z,121.20
2023-02-14T07:38:04.372Z,113.40
2023-02-14T07:40:31.950Z,105.93
2023-02-14T07:42:59.493Z,115.97
2023-02-14T07:45:27.065Z,145.17
2023-02-14T07:47:54.589Z,97.53
2023-02-14T07:50:22.152Z,105.30
2023-02-14T07:52:49.762Z,101.20
2023-02-14T07:55:17.275Z,157.10
2023-02-14T07:57:44.803Z,142.43
2023-02-14T08:00:13.196Z,103.63
2023-02-14T08:02:40.732Z,106.43
2023-02-14T08:05:09.181Z,167.10
2023-02-14T08:07:36.660Z,130.83
2023-02-14T08:10:05.121Z,113.60
2023-02-14T08:12:50.729Z,107.63
2023-02-14T08:15:37.236Z,117.77
2023-02-14T08:18:05.593Z,113.00
2023-02-14T08:20:33.120Z,103.80
2023-02-14T08:23:00.647Z,92.00
2023-02-14T08:25:28.239Z,115.93
2023-02-14T08:27:55.814Z,122.17
2023-02-14T08:30:23.366Z,35.47
2023-02-14T08:32:51.709Z,60.87
2023-02-14T08:35:19.202Z,78.27
2023-02-14T08:37:46.728Z,42.17
2023-02-14T08:40:14.316Z,67.70
2023-02-14T08:42:41.859Z,43.60
2023-02-14T08:45:09.548Z,78.07
2023-02-14T08:47:37.131Z,65.13
2023-02-14T08:50:07.544Z,53.50
2023-02-14T08:52:35.100Z,43.87
2023-02-14T08:55:02.666Z,37.23
2023-02-14T08:57:30.246Z,36.83
2023-02-14T08:59:57.710Z,21.90
2023-02-14T09:02:26.107Z,61.80
2023-02-14T09:04:53.592Z,35.03
2023-02-14T09:07:21.154Z,37.65
2023-02-14T09:09:48.730Z,29.98
2023-02-14T09:12:16.262Z,33.70
2023-02-14T09:14:46.310Z,25.53
2023-02-14T09:17:13.860Z,27.30
2023-02-14T09:19:41.387Z,28.10
2023-02-14T09:22:08.935Z,43.50
2023-02-14T09:24:38.053Z,25.40
2023-02-14T09:27:05.585Z,40.13
2023-02-14T09:29:33.121Z,46.50
2023-02-14T09:32:01.599Z,43.80
2023-02-14T09:34:29.019Z,39.27
2023-02-14T09:36:56.549Z,39.23
2023-02-14T09:39:24.127Z,39.70
2023-02-14T09:42:19.468Z,26.73
2023-02-14T09:44:59.076Z,49.43
2023-02-14T09:47:41.988Z,44.50
2023-02-14T09:50:18.079Z,58.30
2023-02-14T09:52:45.614Z,31.47
2023-02-14T09:55:15.875Z,29.80
2023-02-14T09:57:44.217Z,32.33
2023-02-14T10:00:17.808Z,44.80
2023-02-14T10:03:03.626Z,29.33
2023-02-14T10:05:34.094Z,31.40
2023-02-14T10:08:22.614Z,23.87
2023-02-14T10:11:11.445Z,18.27
2023-02-14T10:13:51.177Z,23.93
2023-02-14T10:16:26.735Z,26.17
2023-02-14T10:19:04.918Z,19.50
2023-02-14T10:21:38.280Z,17.60
2023-02-14T10:24:18.221Z,21.00
2023-02-14T10:26:45.766Z,19.97
2023-02-14T10:29:15.713Z,23.37
2023-02-14T10:31:47.062Z,18.80
2023-02-14T10:34:33.094Z,15.97
2023-02-14T10:37:19.077Z,18.03
2023-02-14T10:40:10.955Z,19.90
2023-02-14T10:42:50.307Z,19.83
2023-02-14T10:45:39.900Z,21.77
2023-02-14T10:48:22.761Z,22.60
2023-02-14T10:50:53.263Z,24.80
2023-02-14T10:53:26.752Z,20.27
2023-02-14T10:56:06.485Z,25.07
2023-02-14T10:58:34.009Z,21.57
2023-02-14T11:01:04.599Z,22.67
2023-02-14T11:03:32.945Z,19.73
2023-02-14T11:06:00.468Z,20.00
2023-02-14T11:08:33.937Z,24.60
2023-02-14T11:11:22.998Z,20.77
2023-02-14T11:13:50.552Z,22.50
2023-02-14T11:16:33.498Z,25.03
2023-02-14T11:19:10.383Z,24.83
2023-02-14T11:21:37.923Z,24.73
2023-02-14T11:24:18.705Z,20.70
2023-02-14T11:26:46.318Z,18.57
2023-02-14T11:29:13.787Z,17.63
2023-02-14T11:31:41.511Z,22.93
2023-02-14T11:34:33.626Z,23.13
2023-02-14T11:37:01.207Z,22.47
2023-02-14T11:39:32.269Z,21.05
2023-02-14T11:41:59.789Z,21.53
2023-02-14T11:44:27.358Z,22.23
2023-02-14T11:46:54.894Z,22.67
2023-02-14T11:49:28.244Z,21.00
2023-02-14T11:51:56.590Z,22.15
2023-02-14T11:54:26.884Z,22.20
2023-02-14T11:56:57.121Z,21.80
2023-02-14T11:59:33.064Z,20.45
2023-02-14T12:02:03.120Z,20.93
2023-02-14T12:04:38.196Z,22.80
2023-02-14T12:07:10.182Z,19.93
2023-02-14T12:09:37.717Z,21.33
2023-02-14T12:12:05.238Z,20.10
2023-02-14T12:14:33.595Z,20.13
2023-02-14T12:17:01.146Z,20.57
2023-02-14T12:19:49.908Z,23.03
2023-02-14T12:22:17.432Z,21.57
2023-02-14T12:24:50.396Z,21.75
2023-02-14T12:27:23.622Z,23.20
2023-02-14T12:30:02.682Z,20.47
2023-02-14T12:32:30.244Z,24.83
2023-02-14T12:35:01.434Z,22.13
2023-02-14T12:37:31.762Z,22.10
2023-02-14T12:40:11.203Z,30.33
2023-02-14T12:42:44.742Z,24.50
2023-02-14T12:45:23.950Z,19.80
2023-02-14T12:48:06.561Z,21.47
2023-02-14T12:50:42.723Z,23.57
2023-02-14T12:53:34.272Z,24.03
2023-02-14T12:56:02.707Z,22.00
2023-02-14T12:58:35.900Z,20.83
2023-02-14T13:01:12.204Z,24.33
2023-02-14T13:03:57.874Z,22.50
2023-02-14T13:06:25.457Z,25.20
2023-02-14T13:09:24.543Z,21.70
2023-02-14T13:12:26.012Z,21.57
2023-02-14T13:15:15.465Z,25.27
2023-02-14T13:17:45.519Z,23.33
2023-02-14T13:20:22.940Z,24.83
2023-02-14T13:22:50.521Z,24.83
2023-02-14T13:25:29.709Z,19.90
2023-02-14T13:27:57.306Z,25.08
2023-02-14T13:30:27.793Z,25.20
2023-02-14T13:32:55.288Z,22.33
2023-02-14T13:35:22.899Z,21.57
2023-02-14T13:37:50.418Z,21.13
2023-02-14T13:40:17.956Z,22.55
2023-02-14T13:42:48.501Z,22.50
2023-02-14T13:45:36.702Z,23.27
2023-02-14T13:48:13.614Z,21.67
2023-02-14T13:50:53.111Z,22.07
2023-02-14T13:53:32.751Z,23.80
2023-02-14T13:56:00.621Z,23.50
2023-02-14T13:58:28.611Z,23.43
2023-02-14T14:00:56.270Z,22.60
2023-02-14T14:03:29.989Z,22.87
2023-02-14T14:06:09.369Z,23.50
2023-02-14T14:08:39.660Z,20.27
2023-02-14T14:11:22.298Z,23.92
2023-02-14T14:14:14.933Z,22.27
2023-02-14T14:16:42.511Z,22.20
2023-02-14T14:19:19.789Z,21.97
2023-02-14T14:21:49.815Z,23.73
2023-02-14T14:24:26.890Z,23.83
2023-02-14T14:27:00.137Z,24.93
2023-02-14T14:29:39.811Z,23.63
2023-02-14T14:32:12.789Z,26.17
2023-02-14T14:34:40.307Z,26.45
2023-02-14T14:37:07.840Z,30.67
2023-02-14T14:39:35.425Z,26.90
2023-02-14T14:42:06.978Z,29.23
2023-02-14T14:44:34.050Z,24.33
2023-02-14T14:47:01.622Z,30.37
2023-02-14T14:49:29.173Z,34.23
2023-02-14T14:51:56.717Z,31.33
2023-02-14T14:54:27.096Z,35.90
2023-02-14T14:56:54.623Z,34.23
2023-02-14T14:59:28.405Z,29.03
2023-02-14T15:01:55.984Z,30.23
2023-02-14T15:04:29.226Z,30.30
2023-02-14T15:06:56.716Z,32.55
2023-02-14T15:09:24.345Z,34.03
2023-02-14T15:12:09.660Z,36.40
2023-02-14T15:14:37.262Z,38.20
2023-02-14T15:17:04.840Z,37.93
2023-02-14T15:19:34.879Z,43.97
2023-02-14T15:22:02.437Z,33.23
2023-02-14T15:24:30.710Z,37.30
2023-02-14T15:26:58.255Z,36.00
2023-02-14T15:29:29.315Z,37.00
2023-02-14T15:31:56.911Z,34.47
2023-02-14T15:34:24.363Z,34.73
2023-02-14T15:36:51.945Z,34.73
2023-02-14T15:39:19.476Z,36.27
2023-02-14T15:41:47.020Z,37.33
2023-02-14T15:44:20.600Z,37.80
2023-02-14T15:46:48.167Z,36.17
2023-02-14T15:49:16.489Z,36.28
2023-02-14T15:51:44.100Z,38.37
2023-02-14T15:54:18.663Z,36.03
2023-02-14T15:56:46.201Z,34.87
2023-02-14T15:59:19.549Z,35.73
2023-02-14T16:01:59.075Z,31.77
2023-02-14T16:04:26.690Z,33.43
2023-02-14T16:07:05.983Z,35.63
2023-02-14T16:09:36.356Z,35.63
2023-02-14T16:12:12.977Z,36.08
2023-02-14T16:14:40.559Z,36.97
2023-02-14T16:17:08.156Z,40.33
2023-02-14T16:19:41.683Z,38.53
2023-02-14T16:22:09.223Z,37.40
2023-02-14T16:24:36.788Z,37.13
2023-02-14T16:27:04.322Z,37.60
2023-02-14T16:29:31.878Z,38.83
2023-02-14T16:32:15.655Z,37.00
2023-02-14T16:34:27.012Z,29.50
2023-02-14T16:36:54.530Z,31.70
2023-02-14T16:39:22.105Z,38.73
2023-02-14T16:41:49.660Z,42.40
2023-02-14T16:44:17.195Z,31.50
2023-02-14T16:46:48.678Z,33.43
2023-02-14T16:49:16.222Z,37.10
2023-02-14T16:51:43.758Z,27.97
2023-02-14T16:54:12.110Z,30.93
2023-02-14T16:56:42.556Z,42.47
2023-02-14T16:59:10.092Z,33.30
2023-02-14T17:01:37.731Z,32.90
2023-02-14T17:04:06.001Z,40.40
2023-02-14T17:06:33.554Z,33.93
2023-02-14T17:09:01.179Z,35.77
2023-02-14T17:11:28.683Z,36.93
2023-02-14T17:13:56.218Z,26.83
2023-02-14T17:16:23.803Z,29.50
2023-02-14T17:18:51.375Z,28.80
2023-02-14T17:21:18.883Z,29.23
2023-02-14T17:23:47.490Z,29.53
2023-02-14T17:26:15.025Z,31.10
2023-02-14T17:28:43.318Z,27.50
2023-02-14T17:31:11.018Z,35.30
2023-02-14T17:33:38.467Z,28.40
2023-02-14T17:36:05.965Z,31.37
2023-02-14T17:38:33.570Z,34.57
2023-02-14T17:41:01.375Z,27.90
2023-02-14T17:43:28.625Z,29.27
2023-02-14T17:45:56.212Z,29.23
2023-02-14T17:48:24.531Z,30.23
2023-02-14T17:50:52.046Z,30.63
2023-02-14T17:53:20.398Z,28.37
2023-02-14T17:55:47.923Z,32.97
2023-02-14T17:58:15.451Z,32.80
2023-02-14T18:00:43.792Z,32.17
2023-02-14T18:03:11.368Z,40.67
2023-02-14T18:05:38.873Z,36.07
2023-02-14T18:08:06.447Z,32.30
2023-02-14T18:10:34.002Z,33.97
2023-02-14T18:13:01.529Z,35.07
2023-02-14T18:15:29.454Z,38.43
2023-02-14T18:17:57.022Z,39.33
2023-02-14T18:20:24.534Z,38.00
2023-02-14T18:22:52.109Z,45.23
2023-02-14T18:25:19.654Z,41.27
2023-02-14T18:27:47.210Z,59.57
2023-02-14T18:30:14.882Z,53.27
2023-02-14T18:32:42.383Z,51.23
2023-02-14T18:35:09.940Z,44.87
2023-02-14T18:37:37.533Z,42.13
2023-02-14T18:40:05.860Z,40.37
2023-02-14T18:42:33.400Z,41.63
2023-02-14T18:45:00.972Z,50.45
2023-02-14T18:47:28.515Z,50.92
2023-02-14T18:49:56.054Z,47.17
2023-02-14T18:52:23.612Z,41.03
2023-02-14T18:54:51.166Z,37.77
2023-02-14T18:57:18.680Z,42.27
2023-02-14T18:59:46.254Z,40.33
2023-02-14T19:02:14.595Z,42.70
2023-02-14T19:04:42.098Z,41.80
2023-02-14T19:07:10.447Z,42.20
2023-02-14T19:09:37.994Z,37.87
2023-02-14T19:12:08.282Z,45.30
2023-02-14T19:14:35.851Z,45.10
2023-02-14T19:17:03.376Z,42.40
2023-02-14T19:19:31.690Z,47.97
2023-02-14T19:21:59.276Z,46.37
2023-02-14T19:24:26.823Z,50.70
2023-02-14T19:26:54.342Z,47.73
2023-02-14T19:29:21.943Z,44.00
2023-02-14T19:31:49.682Z,43.97
2023-02-14T19:34:28.293Z,43.03
2023-02-14T19:36:53.429Z,40.50
2023-02-14T19:39:20.969Z,38.23
2023-02-14T19:41:48.883Z,41.23
2023-02-14T19:44:16.086Z,38.77
2023-02-14T19:46:43.606Z,36.40
2023-02-14T19:49:13.705Z,42.53
2023-02-14T19:51:41.259Z,40.90
2023-02-14T19:54:08.803Z,42.47
2023-02-14T19:56:36.367Z,46.43
2023-02-14T19:59:03.913Z,41.90
2023-02-14T20:01:31.513Z,39.03
2023-02-14T20:04:00.149Z,40.43
2023-02-14T20:06:27.686Z,42.97
2023-02-14T20:08:56.010Z,34.17
2023-02-14T20:11:23.575Z,43.57
2023-02-14T20:13:51.108Z,41.80
2023-02-14T20:16:18.660Z,45.10
2023-02-14T20:18:46.216Z,44.87
2023-02-14T20:21:16.723Z,41.13
2023-02-14T20:23:45.036Z,41.37
2023-02-14T20:26:12.609Z,42.37
2023-02-14T20:28:40.164Z,39.70
2023-02-14T20:31:10.443Z,40.63
2023-02-14T20:33:37.960Z,43.93
2023-02-14T20:36:05.515Z,42.93
2023-02-14T20:38:33.039Z,40.07
2023-02-14T20:41:06.363Z,43.73
2023-02-14T20:43:33.910Z,38.67
2023-02-14T20:46:01.501Z,46.85
2023-02-14T20:48:29.028Z,43.17
2023-02-14T20:50:56.553Z,47.77
2023-02-14T20:53:24.119Z,44.30
2023-02-14T20:55:51.652Z,41.77
2023-02-14T20:58:23.085Z,47.40
2023-02-14T21:00:50.636Z,44.60
2023-02-14T21:03:18.573Z,48.83
2023-02-14T21:05:46.093Z,47.87
2023-02-14T21:08:13.686Z,43.23
2023-02-14T21:10:41.293Z,47.17
2023-02-14T21:13:08.828Z,49.60
2023-02-14T21:15:36.376Z,45.90
2023-02-14T21:18:03.946Z,51.33
2023-02-14T21:20:31.480Z,48.67
2023-02-14T21:22:59.019Z,46.37
2023-02-14T21:25:26.816Z,46.03
2023-02-14T21:27:54.145Z,42.17
2023-02-14T21:30:21.728Z,45.43
2023-02-14T21:32:49.255Z,53.33
2023-02-14T21:35:16.797Z,43.40
2023-02-14T21:37:45.088Z,48.10
2023-02-14T21:40:12.651Z,56.08
2023-02-14T21:42:40.186Z,43.87
2023-02-14T21:45:26.965Z,47.90
2023-02-14T21:48:12.909Z,45.23
2023-02-14T21:50:41.533Z,36.43
2023-02-14T21:53:09.067Z,42.10
2023-02-14T21:55:36.604Z,37.53
2023-02-14T21:58:04.174Z,36.17
2023-02-14T22:00:31.722Z,44.43
2023-02-14T22:03:00.112Z,40.60
2023-02-14T22:05:27.626Z,44.47
2023-02-14T22:07:55.159Z,42.93
2023-02-14T22:10:22.693Z,45.38
2023-02-14T22:12:50.270Z,47.50
2023-02-14T22:15:17.792Z,48.90
2023-02-14T22:17:45.318Z,38.07
2023-02-14T22:20:12.967Z,40.83
2023-02-14T22:22:40.485Z,49.73
2023-02-14T22:25:08.059Z,52.30
2023-02-14T22:27:38.151Z,47.83
2023-02-14T22:30:03.253Z,41.80
2023-02-14T22:32:30.692Z,37.90
2023-02-14T22:34:59.398Z,34.13
2023-02-14T22:37:26.943Z,35.03
2023-02-14T22:39:54.473Z,39.77
2023-02-14T22:42:22.037Z,42.13
2023-02-14T22:44:49.565Z,41.10
2023-02-14T22:47:17.105Z,43.30
2023-02-14T22:49:44.689Z,41.97
2023-02-14T22:52:12.217Z,47.13
2023-02-14T22:54:39.753Z,42.90
2023-02-14T22:57:08.117Z,46.47
2023-02-14T22:59:35.642Z,43.20
2023-02-14T23:02:03.241Z,45.77
2023-02-14T23:04:30.744Z,53.53
2023-02-14T23:06:58.272Z,43.20
2023-02-14T23:09:25.796Z,40.13
2023-02-14T23:11:53.383Z,38.27
2023-02-14T23:14:40.010Z,42.30
2023-02-14T23:17:26.513Z,38.53
2023-02-14T23:20:12.275Z,41.73
2023-02-14T23:22:40.634Z,39.37
2023-02-14T23:25:08.174Z,37.27
2023-02-14T23:27:38.395Z,37.87
2023-02-14T23:30:05.996Z,39.63
2023-02-14T23:32:33.511Z,34.70
2023-02-14T23:35:01.055Z,44.17
2023-02-14T23:37:28.919Z,37.43
2023-02-14T23:39:56.465Z,36.30
2023-02-14T23:42:23.991Z,39.50
2023-02-14T23:44:52.719Z,38.37
2023-02-14T23:47:20.249Z,45.97
2023-02-14T23:49:48.554Z,39.23
2023-02-14T23:52:16.153Z,49.70
2023-02-14T23:54:43.692Z,49.25
2023-02-14T23:57:11.229Z,45.22
2023-02-14T23:59:38.850Z,38.73
